createdAt,value
2022-07-28T00:00:43.965Z,27.45
2022-07-28T00:03:10.473Z,27.44
2022-07-28T00:05:36.994Z,27.44
2022-07-28T00:08:03.857Z,27.43
2022-07-28T00:10:32.151Z,27.40
2022-07-28T00:12:59.899Z,27.42
2022-07-28T00:15:27.439Z,27.41
2022-07-28T00:17:53.977Z,27.41
2022-07-28T00:20:20.999Z,27.41
2022-07-28T00:22:47.534Z,27.40
2022-07-28T00:25:15.174Z,27.40
2022-07-28T00:27:41.715Z,27.40
2022-07-28T00:30:10.012Z,27.39
2022-07-28T00:32:37.598Z,27.38
2022-07-28T00:35:04.893Z,27.39
2022-07-28T00:37:34.682Z,27.39
2022-07-28T00:40:01.325Z,27.38
2022-07-28T00:42:27.771Z,27.37
2022-07-28T00:44:54.239Z,27.31
2022-07-28T00:47:20.752Z,27.35
2022-07-28T00:49:48.292Z,27.35
2022-07-28T00:52:18.171Z,27.33
2022-07-28T00:54:44.736Z,27.31
2022-07-28T00:57:11.187Z,27.32
2022-07-28T00:59:37.707Z,27.31
2022-07-28T01:02:05.254Z,27.31
2022-07-28T01:04:32.163Z,27.30
2022-07-28T01:07:10.663Z,27.30
2022-07-28T01:10:06.307Z,27.29
2022-07-28T01:12:32.708Z,27.28
2022-07-28T01:15:34.621Z,27.27
2022-07-28T01:18:06.708Z,27.27
2022-07-28T01:20:41.738Z,27.18
2022-07-28T01:23:32.798Z,27.26
2022-07-28T01:26:34.580Z,27.25
2022-07-28T01:29:21.762Z,27.15
2022-07-28T01:32:01.289Z,27.24
2022-07-28T01:34:33.487Z,27.24
2022-07-28T01:37:10.143Z,27.23
2022-07-28T01:39:39.644Z,27.22
2022-07-28T01:42:08.919Z,27.21
2022-07-28T01:44:41.180Z,27.21
2022-07-28T01:47:09.235Z,27.18
2022-07-28T01:49:36.988Z,27.20
2022-07-28T01:52:08.171Z,26.82
2022-07-28T01:54:38.785Z,27.19
2022-07-28T01:57:10.873Z,27.18
2022-07-28T01:59:39.879Z,27.18
2022-07-28T02:02:08.887Z,27.17
2022-07-28T02:04:39.497Z,27.16
2022-07-28T02:07:08.373Z,26.99
2022-07-28T02:09:35.519Z,27.17
2022-07-28T02:12:04.470Z,27.16
2022-07-28T02:14:32.906Z,27.15
2022-07-28T02:17:07.863Z,27.15
2022-07-28T02:19:35.951Z,26.56
2022-07-28T02:22:04.886Z,27.06
2022-07-28T02:24:32.768Z,27.03
2022-07-28T02:27:03.979Z,27.12
2022-07-28T02:29:50.779Z,27.13
2022-07-28T02:32:25.247Z,27.11
2022-07-28T02:35:00.722Z,27.07
2022-07-28T02:37:34.816Z,27.11
2022-07-28T02:40:03.476Z,27.09
2022-07-28T02:42:33.313Z,27.10
2022-07-28T02:45:02.913Z,27.09
2022-07-28T02:47:35.002Z,27.08
2022-07-28T02:50:04.084Z,26.98
2022-07-28T02:52:32.858Z,27.04
2022-07-28T02:55:02.250Z,26.89
2022-07-28T02:57:30.600Z,27.07
2022-07-28T02:59:57.516Z,27.06
2022-07-28T03:02:24.586Z,27.05
2022-07-28T03:04:59.343Z,27.05
2022-07-28T03:07:30.549Z,27.04
2022-07-28T03:09:58.287Z,27.03
2022-07-28T03:12:26.335Z,27.02
2022-07-28T03:14:52.859Z,27.02
2022-07-28T03:17:19.521Z,26.98
2022-07-28T03:19:46.075Z,26.91
2022-07-28T03:22:12.770Z,26.87
2022-07-28T03:24:44.384Z,26.97
2022-07-28T03:27:34.441Z,26.99
2022-07-28T03:30:04.323Z,26.99
2022-07-28T03:32:34.322Z,26.98
2022-07-28T03:35:01.263Z,26.60
2022-07-28T03:37:59.858Z,26.50
2022-07-28T03:40:29.759Z,26.97
2022-07-28T03:42:57.835Z,26.96
2022-07-28T03:45:24.872Z,26.80
2022-07-28T03:47:55.688Z,26.96
2022-07-28T03:50:24.425Z,26.95
2022-07-28T03:52:51.436Z,26.83
2022-07-28T03:55:18.636Z,26.92
2022-07-28T03:57:45.864Z,26.73
2022-07-28T04:00:14.271Z,26.91
2022-07-28T04:02:46.554Z,26.92
2022-07-28T04:05:15.180Z,26.92
2022-07-28T04:07:41.938Z,26.80
2022-07-28T04:10:11.301Z,26.92
2022-07-28T04:12:57.213Z,26.84
2022-07-28T04:15:25.131Z,26.91
2022-07-28T04:17:52.846Z,26.91
2022-07-28T04:20:21.055Z,26.90
2022-07-28T04:22:48.422Z,26.90
2022-07-28T04:25:16.578Z,26.89
2022-07-28T04:27:43.493Z,26.88
2022-07-28T04:30:13.297Z,26.88
2022-07-28T04:32:40.945Z,26.88
2022-07-28T04:35:08.865Z,26.85
2022-07-28T04:37:35.686Z,26.86
2022-07-28T04:40:02.807Z,26.87
2022-07-28T04:42:29.293Z,26.85
2022-07-28T04:44:56.143Z,26.86
2022-07-28T04:47:24.395Z,26.85
2022-07-28T04:49:52.673Z,26.85
2022-07-28T04:52:19.967Z,26.85
2022-07-28T04:54:46.428Z,26.84
2022-07-28T04:57:12.978Z,26.82
2022-07-28T04:59:41.168Z,26.83
2022-07-28T05:02:08.121Z,26.83
2022-07-28T05:04:34.885Z,26.83
2022-07-28T05:07:01.763Z,26.81
2022-07-28T05:09:34.560Z,26.83
2022-07-28T05:12:01.029Z,26.82
2022-07-28T05:14:27.482Z,26.78
2022-07-28T05:16:53.986Z,26.73
2022-07-28T05:19:20.495Z,26.81
2022-07-28T05:21:46.959Z,26.67
2022-07-28T05:24:14.308Z,26.80
2022-07-28T05:26:41.120Z,26.80
2022-07-28T05:29:07.802Z,26.79
2022-07-28T05:31:34.359Z,26.80
2022-07-28T05:34:00.875Z,26.79
2022-07-28T05:36:27.650Z,26.77
2022-07-28T05:38:54.459Z,26.76
2022-07-28T05:41:20.906Z,26.79
2022-07-28T05:43:47.347Z,26.76
2022-07-28T05:46:13.920Z,26.63
2022-07-28T05:48:40.530Z,26.78
2022-07-28T05:51:07.078Z,26.66
2022-07-28T05:53:33.564Z,26.77
2022-07-28T05:56:01.748Z,26.75
2022-07-28T05:58:29.756Z,26.77
2022-07-28T06:00:59.964Z,26.77
2022-07-28T06:03:26.519Z,26.75
2022-07-28T06:06:14.153Z,26.77
2022-07-28T06:08:42.322Z,26.79
2022-07-28T06:11:17.862Z,26.43
2022-07-28T06:13:49.667Z,26.76
2022-07-28T06:16:16.232Z,26.76
2022-07-28T06:18:43.982Z,26.72
2022-07-28T06:21:10.917Z,26.57
2022-07-28T06:23:37.420Z,26.60
2022-07-28T06:26:03.891Z,26.73
2022-07-28T06:28:30.401Z,26.74
2022-07-28T06:30:57.036Z,26.63
2022-07-28T06:33:23.665Z,26.74
2022-07-28T06:35:51.417Z,26.74
2022-07-28T06:38:20.373Z,26.74
2022-07-28T06:40:49.832Z,26.71
2022-07-28T06:43:16.361Z,26.73
2022-07-28T06:45:44.945Z,26.68
2022-07-28T06:48:13.629Z,26.74
2022-07-28T06:50:41.011Z,26.74
2022-07-28T06:53:07.599Z,26.73
2022-07-28T06:55:35.782Z,26.73
2022-07-28T06:58:03.686Z,26.74
2022-07-28T07:00:30.644Z,26.67
2022-07-28T07:02:57.396Z,26.73
2022-07-28T07:05:24.027Z,26.74
2022-07-28T07:07:50.498Z,26.73
2022-07-28T07:10:17.175Z,26.75
2022-07-28T07:12:43.689Z,26.67
2022-07-28T07:15:10.910Z,26.74
2022-07-28T07:17:37.679Z,26.74
2022-07-28T07:20:06.718Z,26.66
2022-07-28T07:22:33.249Z,26.68
2022-07-28T07:25:09.085Z,26.76
2022-07-28T07:27:35.579Z,26.68
2022-07-28T07:30:02.544Z,26.75
2022-07-28T07:32:29.052Z,26.75
2022-07-28T07:34:55.501Z,26.74
2022-07-28T07:37:22.207Z,26.74
2022-07-28T07:39:48.631Z,26.74
2022-07-28T07:42:15.094Z,26.36
2022-07-28T07:44:41.604Z,26.65
2022-07-28T07:47:16.603Z,26.75
2022-07-28T07:49:45.950Z,26.76
2022-07-28T07:52:13.658Z,26.67
2022-07-28T07:54:40.167Z,26.76
2022-07-28T07:57:06.664Z,26.34
2022-07-28T07:59:33.115Z,26.75
2022-07-28T08:02:00.695Z,26.74
2022-07-28T08:04:28.597Z,26.73
2022-07-28T08:06:55.388Z,26.75
2022-07-28T08:09:24.803Z,26.75
2022-07-28T08:11:51.262Z,26.75
2022-07-28T08:14:18.296Z,26.74
2022-07-28T08:16:45.136Z,26.75
2022-07-28T08:19:11.640Z,26.74
2022-07-28T08:21:38.758Z,26.63
2022-07-28T08:24:05.585Z,26.75
2022-07-28T08:26:32.205Z,26.72
2022-07-28T08:28:58.760Z,26.76
2022-07-28T08:31:27.377Z,26.75
2022-07-28T08:33:55.007Z,26.64
2022-07-28T08:36:22.203Z,26.75
2022-07-28T08:38:48.760Z,26.75
2022-07-28T08:41:51.219Z,26.75
2022-07-28T08:44:21.867Z,26.57
2022-07-28T08:46:49.296Z,26.59
2022-07-28T08:49:16.648Z,26.74
2022-07-28T08:51:47.141Z,26.74
2022-07-28T08:54:17.526Z,26.73
2022-07-28T08:56:48.101Z,26.75
2022-07-28T08:59:15.171Z,26.69
2022-07-28T09:01:42.277Z,26.67
2022-07-28T09:04:09.559Z,26.78
2022-07-28T09:06:41.950Z,26.80
2022-07-28T09:09:09.888Z,26.82
2022-07-28T09:11:37.870Z,26.69
2022-07-28T09:14:05.392Z,26.84
2022-07-28T09:16:32.403Z,26.85
2022-07-28T09:18:58.986Z,26.84
2022-07-28T09:21:25.615Z,26.84
2022-07-28T09:23:52.178Z,26.83
2022-07-28T09:26:19.005Z,26.69
2022-07-28T09:28:49.420Z,26.83
2022-07-28T09:31:17.330Z,26.82
2022-07-28T09:34:04.828Z,26.82
2022-07-28T09:36:39.271Z,26.82
2022-07-28T09:39:05.894Z,26.68
2022-07-28T09:41:57.895Z,26.83
2022-07-28T09:44:28.816Z,26.83
2022-07-28T09:46:56.424Z,26.84
2022-07-28T09:49:41.029Z,26.75
2022-07-28T09:52:09.624Z,26.85
2022-07-28T09:54:40.546Z,26.86
2022-07-28T09:57:11.265Z,26.87
2022-07-28T09:59:42.688Z,26.88
2022-07-28T10:02:12.793Z,26.89
2022-07-28T10:04:41.412Z,26.88
2022-07-28T10:07:17.203Z,26.89
2022-07-28T10:09:55.018Z,26.90
2022-07-28T10:12:27.237Z,26.89
2022-07-28T10:14:55.589Z,26.90
2022-07-28T10:17:28.779Z,26.90
2022-07-28T10:20:03.615Z,26.89
2022-07-28T10:22:33.661Z,26.82
2022-07-28T10:25:09.734Z,26.94
2022-07-28T10:27:39.300Z,26.94
2022-07-28T10:30:06.554Z,26.96
2022-07-28T10:32:38.343Z,26.88
2022-07-28T10:35:08.741Z,26.95
2022-07-28T10:37:43.335Z,26.91
2022-07-28T10:40:11.715Z,26.95
2022-07-28T10:42:41.473Z,26.96
2022-07-28T10:45:10.981Z,26.80
2022-07-28T10:47:37.452Z,26.97
2022-07-28T10:50:04.937Z,26.21
2022-07-28T10:52:50.639Z,26.90
2022-07-28T10:55:20.371Z,26.98
2022-07-28T10:58:12.004Z,26.99
2022-07-28T11:01:04.681Z,27.00
2022-07-28T11:03:43.994Z,26.86
2022-07-28T11:06:37.042Z,27.02
2022-07-28T11:09:15.321Z,27.04
2022-07-28T11:11:44.897Z,27.05
2022-07-28T11:14:26.363Z,27.04
2022-07-28T11:17:14.782Z,27.04
2022-07-28T11:20:07.188Z,27.04
2022-07-28T11:22:32.769Z,27.04
2022-07-28T11:25:19.610Z,27.04
2022-07-28T11:27:51.153Z,27.06
2022-07-28T11:30:33.288Z,27.06
2022-07-28T11:33:00.970Z,27.06
2022-07-28T11:35:31.756Z,27.06
2022-07-28T11:38:01.028Z,27.09
2022-07-28T11:40:39.215Z,27.14
2022-07-28T11:43:22.207Z,27.14
2022-07-28T11:46:12.512Z,27.12
2022-07-28T11:48:41.601Z,27.11
2022-07-28T11:51:10.217Z,27.11
2022-07-28T11:53:46.579Z,27.12
2022-07-28T11:56:15.182Z,27.10
2022-07-28T11:58:43.122Z,27.14
2022-07-28T12:01:19.364Z,27.16
2022-07-28T12:03:50.311Z,27.16
2022-07-28T12:06:28.842Z,27.16
2022-07-28T12:09:00.279Z,27.15
2022-07-28T12:11:38.154Z,27.17
2022-07-28T12:14:13.404Z,27.19
2022-07-28T12:16:43.400Z,27.19
2022-07-28T12:19:11.495Z,27.18
2022-07-28T12:21:50.299Z,27.19
2022-07-28T12:24:27.863Z,27.20
2022-07-28T12:26:54.983Z,27.22
2022-07-28T12:29:21.787Z,27.11
2022-07-28T12:31:59.100Z,27.23
2022-07-28T12:34:28.754Z,27.28
2022-07-28T12:36:57.978Z,27.28
2022-07-28T12:39:26.003Z,27.30
2022-07-28T12:42:10.207Z,27.32
2022-07-28T12:44:40.237Z,27.33
2022-07-28T12:47:09.345Z,27.35
2022-07-28T12:49:37.481Z,27.35
2022-07-28T12:52:24.520Z,27.38
2022-07-28T12:54:55.596Z,27.39
2022-07-28T12:57:48.803Z,27.42
2022-07-28T13:00:19.480Z,27.40
2022-07-28T13:02:46.507Z,27.37
2022-07-28T13:06:02.778Z,27.42
2022-07-28T13:08:47.586Z,27.47
2022-07-28T13:11:43.301Z,27.52
2022-07-28T13:14:02.529Z,27.54
2022-07-28T13:16:29.985Z,27.56
2022-07-28T13:19:03.851Z,27.56
2022-07-28T13:21:56.953Z,27.54
2022-07-28T13:24:25.666Z,27.55
2022-07-28T13:26:52.193Z,27.54
2022-07-28T13:29:19.682Z,27.53
2022-07-28T13:31:46.277Z,27.38
2022-07-28T13:34:13.148Z,27.51
2022-07-28T13:36:39.895Z,27.31
2022-07-28T13:39:07.147Z,27.44
2022-07-28T13:41:57.465Z,27.32
2022-07-28T13:44:20.187Z,27.56
2022-07-28T13:46:47.416Z,27.59
2022-07-28T13:49:16.737Z,27.21
2022-07-28T13:51:43.381Z,27.48
2022-07-28T13:54:09.852Z,27.61
2022-07-28T13:56:40.710Z,27.63
2022-07-28T13:59:08.880Z,27.63
2022-07-28T14:01:36.219Z,27.68
2022-07-28T14:04:04.401Z,27.72
2022-07-28T14:06:34.109Z,27.77
2022-07-28T14:09:01.139Z,27.81
2022-07-28T14:11:30.908Z,27.82
2022-07-28T14:14:02.767Z,27.84
2022-07-28T14:16:31.875Z,27.85
2022-07-28T14:18:58.682Z,27.88
2022-07-28T14:21:25.137Z,27.90
2022-07-28T14:23:51.727Z,27.85
2022-07-28T14:26:35.407Z,27.96
2022-07-28T14:29:03.577Z,27.96
2022-07-28T14:31:38.037Z,27.96
2022-07-28T14:34:04.548Z,27.97
2022-07-28T14:36:31.575Z,27.84
2022-07-28T14:38:58.163Z,27.91
2022-07-28T14:41:25.770Z,27.99
2022-07-28T14:43:52.962Z,27.95
2022-07-28T14:46:21.693Z,27.98
2022-07-28T14:48:48.460Z,27.99
2022-07-28T14:51:15.009Z,28.00
2022-07-28T14:53:46.416Z,28.02
2022-07-28T14:56:18.448Z,28.01
2022-07-28T14:58:44.978Z,28.02
2022-07-28T15:01:11.451Z,27.93
2022-07-28T15:03:37.933Z,28.02
2022-07-28T15:06:09.918Z,28.02
2022-07-28T15:08:36.414Z,28.00
2022-07-28T15:11:03.182Z,27.93
2022-07-28T15:13:29.699Z,28.08
2022-07-28T15:15:56.895Z,28.04
2022-07-28T15:18:24.403Z,28.11
2022-07-28T15:20:51.124Z,28.14
2022-07-28T15:23:18.331Z,28.15
2022-07-28T15:25:46.859Z,28.12
2022-07-28T15:28:17.556Z,28.15
2022-07-28T15:30:51.391Z,28.19
2022-07-28T15:33:20.436Z,28.08
2022-07-28T15:35:59.419Z,28.13
2022-07-28T15:38:29.506Z,28.19
2022-07-28T15:40:58.849Z,28.20
2022-07-28T15:43:25.522Z,28.21
2022-07-28T15:45:54.854Z,28.17
2022-07-28T15:48:22.428Z,28.15
2022-07-28T15:50:49.218Z,28.14
2022-07-28T15:53:18.768Z,28.07
2022-07-28T15:55:50.547Z,28.14
2022-07-28T15:58:17.866Z,28.18
2022-07-28T16:00:45.877Z,28.18
2022-07-28T16:03:12.631Z,28.05
2022-07-28T16:05:43.980Z,28.08
2022-07-28T16:08:10.402Z,28.18
2022-07-28T16:10:36.861Z,28.18
2022-07-28T16:13:03.351Z,28.18
2022-07-28T16:15:29.820Z,28.18
2022-07-28T16:17:56.480Z,28.19
2022-07-28T16:20:24.269Z,28.18
2022-07-28T16:22:51.250Z,28.19
2022-07-28T16:25:20.246Z,28.11
2022-07-28T16:27:48.234Z,28.17
2022-07-28T16:30:15.668Z,28.13
2022-07-28T16:32:43.023Z,28.08
2022-07-28T16:35:09.755Z,28.16
2022-07-28T16:37:36.887Z,28.17
2022-07-28T16:40:04.171Z,28.17
2022-07-28T16:42:30.667Z,28.18
2022-07-28T16:44:57.582Z,28.19
2022-07-28T16:47:24.166Z,28.18
2022-07-28T16:49:50.608Z,28.18
2022-07-28T16:52:17.063Z,28.20
2022-07-28T16:54:43.566Z,28.21
2022-07-28T16:57:10.075Z,28.19
2022-07-28T16:59:44.845Z,28.22
2022-07-28T17:02:15.589Z,28.23
2022-07-28T17:04:42.186Z,28.24
2022-07-28T17:07:08.915Z,28.24
2022-07-28T17:09:35.391Z,28.27
2022-07-28T17:12:01.937Z,28.26
2022-07-28T17:14:28.619Z,28.30
2022-07-28T17:16:55.126Z,28.08
2022-07-28T17:19:22.203Z,28.30
2022-07-28T17:21:48.963Z,28.18
2022-07-28T17:24:16.123Z,28.20
2022-07-28T17:27:35.274Z,28.20
2022-07-28T17:29:30.030Z,28.28
2022-07-28T17:31:56.472Z,28.29
2022-07-28T17:34:23.931Z,28.28
2022-07-28T17:36:50.477Z,28.28
2022-07-28T17:39:16.994Z,28.21
2022-07-28T17:41:43.484Z,28.27
2022-07-28T17:44:10.075Z,28.28
2022-07-28T17:46:36.626Z,28.27
2022-07-28T17:49:05.569Z,28.26
2022-07-28T17:51:32.188Z,28.27
2022-07-28T17:53:58.789Z,28.28
2022-07-28T17:56:26.188Z,28.21
2022-07-28T17:58:55.236Z,28.30
2022-07-28T18:01:21.901Z,28.21
2022-07-28T18:03:59.226Z,28.31
2022-07-28T18:06:33.907Z,28.18
2022-07-28T18:09:06.646Z,28.29
2022-07-28T18:11:55.967Z,28.30
2022-07-28T18:14:26.200Z,28.30
2022-07-28T18:16:52.729Z,28.29
2022-07-28T18:19:20.318Z,28.29
2022-07-28T18:21:46.830Z,28.29
2022-07-28T18:24:13.668Z,28.29
2022-07-28T18:26:40.617Z,28.30
2022-07-28T18:29:07.294Z,28.31
2022-07-28T18:31:33.798Z,28.31
2022-07-28T18:34:00.312Z,28.33
2022-07-28T18:36:26.768Z,28.32
2022-07-28T18:38:53.231Z,28.32
2022-07-28T18:41:19.674Z,28.34
2022-07-28T18:43:46.148Z,28.26
2022-07-28T18:46:12.657Z,28.30
2022-07-28T18:48:39.306Z,28.35
2022-07-28T18:51:05.843Z,28.35
2022-07-28T18:53:32.480Z,28.34
2022-07-28T18:55:58.915Z,28.27
2022-07-28T18:58:25.449Z,28.26
2022-07-28T19:00:51.948Z,28.33
2022-07-28T19:03:18.535Z,28.32
2022-07-28T19:05:46.418Z,28.33
2022-07-28T19:08:13.263Z,28.29
2022-07-28T19:10:40.025Z,28.33
2022-07-28T19:13:09.097Z,28.32
2022-07-28T19:15:39.701Z,28.32
2022-07-28T19:18:10.293Z,28.25
2022-07-28T19:20:39.533Z,28.23
2022-07-28T19:23:06.074Z,28.33
2022-07-28T19:25:35.522Z,28.27
2022-07-28T19:28:02.033Z,28.17
2022-07-28T19:30:30.298Z,28.26
2022-07-28T19:32:56.750Z,28.33
2022-07-28T19:35:23.303Z,28.34
2022-07-28T19:37:50.774Z,28.34
2022-07-28T19:40:17.262Z,28.24
2022-07-28T19:42:43.750Z,28.33
2022-07-28T19:45:10.423Z,28.33
2022-07-28T19:47:37.205Z,28.33
2022-07-28T19:50:05.214Z,28.32
2022-07-28T19:52:31.794Z,28.31
2022-07-28T19:54:58.302Z,28.31
2022-07-28T19:57:25.273Z,28.31
2022-07-28T19:59:51.748Z,28.32
2022-07-28T20:02:18.280Z,28.33
2022-07-28T20:04:44.837Z,28.34
2022-07-28T20:07:11.347Z,28.14
2022-07-28T20:09:37.799Z,28.33
2022-07-28T20:12:04.611Z,28.34
2022-07-28T20:14:34.361Z,28.24
2022-07-28T20:17:00.924Z,28.32
2022-07-28T20:19:27.374Z,28.20
2022-07-28T20:21:53.836Z,28.36
2022-07-28T20:24:21.007Z,28.35
2022-07-28T20:26:47.437Z,28.35
2022-07-28T20:29:13.919Z,28.35
2022-07-28T20:31:40.456Z,28.28
2022-07-28T20:34:07.221Z,28.35
2022-07-28T20:36:34.656Z,28.34
2022-07-28T20:39:01.346Z,28.15
2022-07-28T20:41:27.798Z,28.35
2022-07-28T20:46:41.180Z,28.37
2022-07-28T20:49:08.164Z,28.22
2022-07-28T20:51:34.681Z,28.35
2022-07-28T20:54:01.134Z,28.37
2022-07-28T20:56:27.570Z,28.37
2022-07-28T20:58:54.163Z,28.38
2022-07-28T21:01:23.459Z,28.31
2022-07-28T21:03:50.160Z,28.38
2022-07-28T21:06:16.580Z,28.37
2022-07-28T21:08:44.880Z,28.30
2022-07-28T21:11:12.082Z,28.30
2022-07-28T21:13:38.582Z,28.35
2022-07-28T21:16:05.102Z,28.35
2022-07-28T21:18:31.532Z,28.35
2022-07-28T21:20:59.559Z,28.36
2022-07-28T21:23:26.015Z,28.36
2022-07-28T21:25:53.555Z,28.28
2022-07-28T21:28:38.540Z,28.37
2022-07-28T21:31:05.039Z,28.36
2022-07-28T21:33:31.610Z,28.35
2022-07-28T21:35:58.234Z,28.25
2022-07-28T21:38:24.696Z,28.32
2022-07-28T21:40:51.244Z,28.35
2022-07-28T21:43:17.767Z,28.33
2022-07-28T21:45:45.571Z,28.33
2022-07-28T21:48:12.625Z,28.18
2022-07-28T21:50:39.139Z,28.31
2022-07-28T21:53:05.593Z,28.30
2022-07-28T21:55:32.268Z,28.22
2022-07-28T21:57:58.733Z,28.08
2022-07-28T22:00:25.349Z,28.29
2022-07-28T22:02:51.877Z,28.29
2022-07-28T22:05:18.689Z,28.29
2022-07-28T22:07:45.193Z,28.23
2022-07-28T22:10:11.784Z,28.28
2022-07-28T22:12:39.521Z,28.28
2022-07-28T22:15:06.655Z,28.28
2022-07-28T22:17:33.168Z,28.27
2022-07-28T22:19:59.620Z,28.27
2022-07-28T22:22:26.074Z,28.26
2022-07-28T22:24:52.578Z,28.21
2022-07-28T22:27:19.083Z,28.26
2022-07-28T22:29:50.048Z,28.26
2022-07-28T22:32:19.000Z,28.25
2022-07-28T22:34:55.888Z,28.25
2022-07-28T22:37:22.353Z,28.23
2022-07-28T22:39:48.852Z,28.23
2022-07-28T22:42:15.374Z,28.17
2022-07-28T22:44:41.892Z,28.06
2022-07-28T22:47:08.475Z,28.20
2022-07-28T22:49:35.055Z,28.22
2022-07-28T22:52:01.636Z,27.51
2022-07-28T22:54:28.085Z,28.17
2022-07-28T22:56:54.585Z,28.21
2022-07-28T22:59:21.077Z,28.21
2022-07-28T23:01:48.110Z,28.17
2022-07-28T23:04:15.477Z,28.20
2022-07-28T23:06:42.367Z,28.11
2022-07-28T23:09:08.959Z,28.19
2022-07-28T23:11:35.428Z,28.05
2022-07-28T23:14:02.170Z,28.19
2022-07-28T23:16:28.802Z,28.17
2022-07-28T23:18:55.375Z,28.10
2022-07-28T23:21:22.226Z,28.08
2022-07-28T23:23:48.779Z,28.16
2022-07-28T23:26:15.281Z,28.06
2022-07-28T23:28:41.756Z,28.15
2022-07-28T23:31:08.351Z,28.15
2022-07-28T23:33:56.814Z,28.15
2022-07-28T23:36:26.711Z,28.14
2022-07-28T23:38:58.226Z,28.15
2022-07-28T23:41:25.693Z,28.14
2022-07-28T23:43:52.405Z,28.14
2022-07-28T23:46:18.957Z,28.13
2022-07-28T23:48:45.534Z,28.13
2022-07-28T23:51:13.942Z,28.13
2022-07-28T23:53:41.284Z,28.14
2022-07-28T23:56:08.400Z,28.13
2022-07-28T23:58:35.244Z,28.12
